Terminal Aerodrome Forecast
Issued by NWS

Current Version | Previous Version | Text Only | Print | Product List | Glossary On
Versions: 1 2 3 4 5 6 7 8 9 10 11 12 13 14 15 16 17 18 19 20 21 22 23 24 25 26 27 28 29 30 31
000 FTUS41 KBOX 072343 TAFBAF TAF KBAF 072343Z 0800/0824 00000KT P6SM SCT250 FM080600 04005KT P6SM BKN025 FM080800 04006KT P6SM BKN020 FM081000 04007KT P6SM BKN025 FM081100 03007KT P6SM VCSH OVC025 FM081400 03008KT P6SM VCSH OVC020 FM081600 03008KT 1SM -SN BR BKN020=

USA.gov is the U.S. government's official web portal to all federal, state and local government web resources and services.